createdAt,value
2022-12-27T00:01:14.633Z,3.97
2022-12-27T00:03:41.677Z,3.97
2022-12-27T00:06:10.558Z,3.95
2022-12-27T00:08:37.148Z,3.89
2022-12-27T00:11:06.991Z,3.89
2022-12-27T00:13:33.561Z,3.89
2022-12-27T00:16:05.339Z,3.89
2022-12-27T00:18:32.179Z,3.88
2022-12-27T00:21:00.594Z,3.86
2022-12-27T00:23:27.995Z,3.93
2022-12-27T00:26:02.920Z,3.92
2022-12-27T00:28:31.276Z,3.90
2022-12-27T00:30:58.433Z,3.90
2022-12-27T00:33:25.957Z,3.92
2022-12-27T00:35:52.689Z,3.95
2022-12-27T00:38:19.462Z,3.96
2022-12-27T00:40:46.061Z,3.97
2022-12-27T00:43:12.597Z,4.00
2022-12-27T00:45:39.200Z,4.00
2022-12-27T00:48:06.015Z,4.04
2022-12-27T00:50:32.607Z,4.06
2022-12-27T00:52:59.177Z,4.04
2022-12-27T00:55:25.780Z,4.05
2022-12-27T00:57:52.337Z,4.07
2022-12-27T01:00:19.011Z,4.03
2022-12-27T01:02:45.518Z,3.98
2022-12-27T01:05:12.690Z,3.99
2022-12-27T01:07:39.257Z,3.97
2022-12-27T01:10:06.291Z,3.95
2022-12-27T01:12:35.157Z,3.95
2022-12-27T01:15:01.794Z,3.99
2022-12-27T01:17:29.965Z,4.06
2022-12-27T01:19:56.478Z,4.13
2022-12-27T01:22:23.358Z,4.17
2022-12-27T01:24:49.888Z,4.21
2022-12-27T01:27:16.451Z,4.22
2022-12-27T01:29:43.030Z,4.24
2022-12-27T01:32:10.319Z,4.22
2022-12-27T01:34:36.849Z,4.17
2022-12-27T01:37:03.594Z,4.16
2022-12-27T01:39:30.139Z,4.19
2022-12-27T01:42:15.238Z,4.16
2022-12-27T01:44:43.779Z,4.17
2022-12-27T01:47:33.124Z,4.12
2022-12-27T01:50:03.621Z,4.14
2022-12-27T01:52:44.468Z,4.16
2022-12-27T01:55:29.303Z,4.22
2022-12-27T01:58:02.609Z,4.23
2022-12-27T02:00:29.325Z,4.23
2022-12-27T02:02:56.213Z,4.23
2022-12-27T02:05:25.262Z,4.23
2022-12-27T02:08:28.708Z,4.25
2022-12-27T02:10:55.851Z,4.29
2022-12-27T02:13:22.817Z,4.34
2022-12-27T02:15:49.513Z,4.34
2022-12-27T02:18:16.557Z,4.36
2022-12-27T02:21:05.901Z,4.39
2022-12-27T02:24:03.160Z,4.41
2022-12-27T02:26:31.079Z,4.41
2022-12-27T02:29:09.592Z,4.41
2022-12-27T02:31:42.200Z,4.38
2022-12-27T02:34:17.907Z,4.35
2022-12-27T02:36:46.515Z,4.34
2022-12-27T02:39:16.063Z,4.34
2022-12-27T02:42:03.074Z,4.35
2022-12-27T02:44:48.630Z,4.39
2022-12-27T02:47:43.562Z,4.43
2022-12-27T02:50:31.615Z,4.45
2022-12-27T02:53:09.888Z,4.42
2022-12-27T02:56:17.686Z,4.35
2022-12-27T02:58:50.408Z,4.30
2022-12-27T03:01:50.801Z,4.32
2022-12-27T03:04:28.142Z,4.38
2022-12-27T03:07:04.745Z,4.40
2022-12-27T03:09:56.504Z,4.39
2022-12-27T03:12:59.575Z,4.34
2022-12-27T03:15:57.460Z,4.27
2022-12-27T03:18:37.968Z,4.22
2022-12-27T03:21:39.743Z,4.16
2022-12-27T03:24:36.614Z,4.13
2022-12-27T03:27:09.737Z,4.12
2022-12-27T03:29:55.245Z,4.10
2022-12-27T03:32:42.211Z,4.08
2022-12-27T03:35:17.482Z,4.05
2022-12-27T03:38:03.060Z,4.01
2022-12-27T03:41:06.749Z,4.01
2022-12-27T03:43:34.847Z,3.96
2022-12-27T03:46:36.487Z,3.96
2022-12-27T03:49:41.155Z,3.93
2022-12-27T03:52:25.379Z,3.92
2022-12-27T03:54:53.175Z,3.91
2022-12-27T03:57:25.027Z,3.95
2022-12-27T03:59:51.674Z,3.98
2022-12-27T04:02:19.091Z,3.97
2022-12-27T04:04:45.809Z,4.01
2022-12-27T04:07:14.197Z,4.05
2022-12-27T04:10:00.458Z,4.02
2022-12-27T04:12:45.544Z,4.01
2022-12-27T04:15:30.926Z,3.99
2022-12-27T04:18:15.808Z,3.97
2022-12-27T04:21:01.051Z,3.93
2022-12-27T04:23:46.348Z,3.95
2022-12-27T04:26:31.325Z,4.00
2022-12-27T04:29:16.366Z,4.05
2022-12-27T04:32:01.346Z,4.04
2022-12-27T04:34:42.725Z,4.05
2022-12-27T04:37:12.784Z,4.07
2022-12-27T04:39:39.356Z,4.05
2022-12-27T04:42:24.831Z,4.01
2022-12-27T04:45:15.003Z,3.96
2022-12-27T04:48:00.754Z,3.93
2022-12-27T04:50:49.527Z,3.89
2022-12-27T04:53:38.465Z,3.83
2022-12-27T04:56:07.092Z,3.79
2022-12-27T04:58:34.258Z,3.76
2022-12-27T05:01:22.519Z,3.74
2022-12-27T05:03:52.997Z,3.77
2022-12-27T05:06:19.933Z,3.78
2022-12-27T05:09:05.307Z,3.80
2022-12-27T05:11:51.609Z,3.82
2022-12-27T05:14:18.179Z,3.86
2022-12-27T05:16:45.028Z,3.89
2022-12-27T05:19:13.591Z,3.91
2022-12-27T05:22:02.031Z,3.90
2022-12-27T05:24:48.836Z,3.90
2022-12-27T05:27:15.913Z,3.88
2022-12-27T05:29:42.476Z,3.87
2022-12-27T05:32:13.029Z,3.85
2022-12-27T05:34:40.739Z,3.82
2022-12-27T05:37:07.451Z,3.78
2022-12-27T05:39:34.001Z,3.73
2022-12-27T05:42:00.581Z,3.74
2022-12-27T05:44:27.158Z,3.71
2022-12-27T05:46:54.852Z,3.69
2022-12-27T05:49:21.603Z,3.70
2022-12-27T05:51:48.120Z,3.69
2022-12-27T05:54:14.699Z,3.69
2022-12-27T05:56:41.822Z,3.70
2022-12-27T05:59:08.545Z,3.69
2022-12-27T06:01:35.313Z,3.68
2022-12-27T06:04:01.988Z,3.69
2022-12-27T06:06:29.014Z,3.67
2022-12-27T06:08:57.713Z,3.67
2022-12-27T06:11:24.343Z,3.66
2022-12-27T06:13:53.348Z,3.69
2022-12-27T06:16:22.097Z,3.67
2022-12-27T06:19:18.384Z,3.66
2022-12-27T06:21:45.472Z,3.66
2022-12-27T06:24:17.782Z,3.64
2022-12-27T06:26:46.882Z,3.62
2022-12-27T06:29:13.438Z,3.60
2022-12-27T06:31:40.440Z,3.59
2022-12-27T06:34:07.048Z,3.58
2022-12-27T06:36:33.715Z,3.56
2022-12-27T06:39:00.428Z,3.54
2022-12-27T06:41:28.010Z,3.57
2022-12-27T06:43:58.276Z,3.58
2022-12-27T06:46:25.582Z,3.60
2022-12-27T06:48:52.771Z,3.60
2022-12-27T06:51:21.155Z,3.61
2022-12-27T06:53:48.464Z,3.59
2022-12-27T06:56:18.151Z,3.57
2022-12-27T06:58:46.148Z,3.57
2022-12-27T07:01:16.523Z,3.59
2022-12-27T07:03:43.349Z,3.59
2022-12-27T07:06:12.167Z,3.63
2022-12-27T07:08:38.743Z,3.64
2022-12-27T07:11:09.098Z,3.62
2022-12-27T07:13:38.124Z,3.58
2022-12-27T07:16:10.118Z,3.54
2022-12-27T07:18:37.059Z,3.55
2022-12-27T07:21:06.468Z,3.54
2022-12-27T07:23:33.436Z,3.53
2022-12-27T07:26:07.459Z,3.58
2022-12-27T07:28:34.590Z,3.58
2022-12-27T07:31:06.430Z,3.59
2022-12-27T07:33:32.958Z,3.62
2022-12-27T07:36:01.452Z,3.65
2022-12-27T07:38:28.338Z,3.66
2022-12-27T07:40:54.984Z,3.62
2022-12-27T07:43:21.571Z,3.59
2022-12-27T07:45:48.181Z,3.63
2022-12-27T07:48:14.754Z,3.62
2022-12-27T07:50:41.291Z,3.59
2022-12-27T07:53:07.977Z,3.57
2022-12-27T07:55:34.961Z,3.56
2022-12-27T07:58:01.498Z,3.54
2022-12-27T08:00:30.619Z,3.53
2022-12-27T08:02:57.183Z,3.52
2022-12-27T08:05:27.626Z,3.50
2022-12-27T08:07:54.854Z,3.52
2022-12-27T08:10:21.405Z,3.52
2022-12-27T08:12:47.977Z,3.54
2022-12-27T08:15:14.544Z,3.52
2022-12-27T08:17:41.124Z,3.53
2022-12-27T08:20:13.519Z,3.52
2022-12-27T08:22:40.174Z,3.53
2022-12-27T08:25:07.666Z,3.57
2022-12-27T08:27:34.387Z,3.57
2022-12-27T08:30:00.930Z,3.57
2022-12-27T08:32:27.835Z,3.59
2022-12-27T08:34:54.380Z,3.63
2022-12-27T08:37:20.930Z,3.68
2022-12-27T08:39:47.663Z,3.68
2022-12-27T08:42:14.342Z,3.71
2022-12-27T08:44:40.814Z,3.72
2022-12-27T08:47:07.470Z,3.72
2022-12-27T08:49:34.013Z,3.73
2022-12-27T08:52:00.503Z,3.71
2022-12-27T08:54:27.219Z,3.76
2022-12-27T08:56:53.680Z,3.81
2022-12-27T08:59:20.403Z,3.82
2022-12-27T09:01:47.142Z,3.86
2022-12-27T09:04:13.776Z,3.94
2022-12-27T09:06:41.006Z,3.94
2022-12-27T09:09:07.620Z,3.95
2022-12-27T09:11:35.223Z,3.96
2022-12-27T09:14:04.702Z,3.96
2022-12-27T09:16:34.229Z,3.97
2022-12-27T09:19:00.970Z,3.99
2022-12-27T09:21:29.936Z,4.02
2022-12-27T09:23:56.468Z,4.04
2022-12-27T09:26:27.380Z,4.05
2022-12-27T09:28:55.357Z,4.08
2022-12-27T09:31:24.196Z,4.11
2022-12-27T09:33:50.790Z,4.14
2022-12-27T09:36:20.683Z,4.16
2022-12-27T09:38:48.300Z,4.18
2022-12-27T09:42:25.547Z,4.17
2022-12-27T09:44:23.700Z,4.19
2022-12-27T09:46:56.321Z,4.23
2022-12-27T09:49:36.276Z,4.25
2022-12-27T09:52:08.021Z,4.25
2022-12-27T09:54:49.001Z,4.28
2022-12-27T09:57:24.231Z,4.29
2022-12-27T09:59:58.172Z,4.34
2022-12-27T10:02:28.414Z,4.36
2022-12-27T10:05:19.797Z,4.39
2022-12-27T10:08:26.608Z,4.40
2022-12-27T10:11:39.193Z,4.43
2022-12-27T10:14:13.746Z,4.44
2022-12-27T10:16:57.680Z,4.48
2022-12-27T10:19:28.230Z,4.51
2022-12-27T10:21:58.996Z,4.53
2022-12-27T10:24:39.612Z,4.57
2022-12-27T10:27:16.228Z,4.59
2022-12-27T10:29:43.607Z,4.60
2022-12-27T10:32:16.003Z,4.64
2022-12-27T10:34:42.760Z,4.67
2022-12-27T10:37:15.923Z,4.70
2022-12-27T10:39:43.089Z,4.72
2022-12-27T10:42:23.815Z,4.75
2022-12-27T10:44:50.445Z,4.75
2022-12-27T10:47:17.090Z,4.76
2022-12-27T10:50:02.773Z,4.78
2022-12-27T10:52:34.857Z,4.80
2022-12-27T10:55:01.516Z,4.82
2022-12-27T10:57:30.523Z,4.85
2022-12-27T11:00:20.227Z,4.92
2022-12-27T11:02:54.364Z,4.96
2022-12-27T11:16:52.041Z,5.08
2022-12-27T11:19:24.604Z,5.10
2022-12-27T11:22:11.560Z,5.14
2022-12-27T11:24:47.538Z,5.21
2022-12-27T11:27:26.606Z,5.27
2022-12-27T11:29:58.778Z,5.34
2022-12-27T11:32:36.837Z,5.41
2022-12-27T11:35:03.488Z,5.46
2022-12-27T11:37:30.200Z,5.51
2022-12-27T11:40:21.181Z,5.57
2022-12-27T11:42:51.632Z,5.62
2022-12-27T11:45:18.111Z,5.65
2022-12-27T11:47:49.682Z,5.67
2022-12-27T11:50:28.336Z,5.72
2022-12-27T11:53:12.630Z,5.73
2022-12-27T11:55:56.457Z,5.78
2022-12-27T11:58:43.623Z,5.80
2022-12-27T12:01:33.555Z,5.82
2022-12-27T12:04:23.185Z,5.83
2022-12-27T12:07:16.403Z,5.87
2022-12-27T12:10:10.768Z,5.92
2022-12-27T12:13:02.738Z,5.93
2022-12-27T12:15:46.932Z,5.93
2022-12-27T12:18:36.780Z,5.94
2022-12-27T12:21:24.170Z,5.96
2022-12-27T12:24:14.944Z,5.97
2022-12-27T12:27:22.425Z,6.00
2022-12-27T12:30:04.737Z,6.02
2022-12-27T12:32:39.187Z,6.05
2022-12-27T12:35:23.932Z,6.08
2022-12-27T12:38:05.312Z,6.11
2022-12-27T12:41:07.737Z,6.14
2022-12-27T12:43:52.262Z,6.18
2022-12-27T12:46:27.170Z,6.21
2022-12-27T12:49:07.295Z,6.24
2022-12-27T12:51:42.522Z,6.29
2022-12-27T12:54:20.481Z,6.32
2022-12-27T12:57:05.745Z,6.33
2022-12-27T12:59:55.618Z,6.35
2022-12-27T13:02:41.989Z,6.36
2022-12-27T13:05:35.370Z,6.36
2022-12-27T13:08:11.744Z,6.36
2022-12-27T13:10:50.493Z,6.37
2022-12-27T13:13:29.412Z,6.38
2022-12-27T13:16:17.524Z,6.42
2022-12-27T13:18:55.436Z,6.43
2022-12-27T13:21:46.656Z,6.43
2022-12-27T13:24:37.663Z,6.42
2022-12-27T13:27:35.509Z,6.43
2022-12-27T13:30:07.435Z,6.44
2022-12-27T13:33:06.905Z,6.44
2022-12-27T13:35:54.492Z,6.46
2022-12-27T13:38:38.692Z,6.47
2022-12-27T13:41:10.376Z,6.48
2022-12-27T13:43:48.246Z,6.49
2022-12-27T13:46:49.519Z,6.50
2022-12-27T13:49:41.105Z,6.55
2022-12-27T13:52:42.282Z,6.60
2022-12-27T13:55:23.513Z,6.63
2022-12-27T13:57:50.142Z,6.65
2022-12-27T14:00:20.864Z,6.68
2022-12-27T14:03:27.637Z,6.67
2022-12-27T14:06:08.980Z,6.68
2022-12-27T14:08:38.517Z,6.68
2022-12-27T14:11:33.179Z,6.64
2022-12-27T14:14:02.395Z,6.63
2022-12-27T14:16:57.537Z,6.63
2022-12-27T14:19:45.560Z,6.62
2022-12-27T14:22:46.507Z,6.62
2022-12-27T14:25:47.761Z,6.61
2022-12-27T14:28:59.636Z,6.59
2022-12-27T14:31:41.659Z,6.57
2022-12-27T14:34:50.517Z,6.56
2022-12-27T14:37:43.415Z,6.54
2022-12-27T14:40:43.479Z,6.51
2022-12-27T14:43:46.284Z,6.50
2022-12-27T14:46:28.599Z,6.50
2022-12-27T14:49:21.790Z,6.48
2022-12-27T14:52:10.297Z,6.47
2022-12-27T14:54:55.114Z,6.47
2022-12-27T14:57:36.555Z,6.45
2022-12-27T15:00:15.669Z,6.45
2022-12-27T15:03:08.873Z,6.43
2022-12-27T15:05:49.169Z,6.42
2022-12-27T15:08:31.924Z,6.40
2022-12-27T15:11:01.448Z,6.38
2022-12-27T15:13:54.813Z,6.37
2022-12-27T15:16:22.489Z,6.37
2022-12-27T15:18:56.472Z,6.35
2022-12-27T15:21:46.467Z,6.33
2022-12-27T15:24:37.331Z,6.31
2022-12-27T15:27:19.472Z,6.28
2022-12-27T15:30:09.649Z,6.26
2022-12-27T15:32:53.596Z,6.26
2022-12-27T15:35:48.134Z,6.25
2022-12-27T15:38:17.823Z,6.25
2022-12-27T15:41:04.552Z,6.23
2022-12-27T15:43:43.916Z,6.22
2022-12-27T15:46:23.263Z,6.21
2022-12-27T15:49:20.817Z,6.19
2022-12-27T15:52:03.046Z,6.18
2022-12-27T15:54:53.675Z,6.17
2022-12-27T15:57:40.765Z,6.15
2022-12-27T16:00:16.944Z,6.15
2022-12-27T16:02:43.674Z,6.16
2022-12-27T16:05:31.052Z,6.16
2022-12-27T16:07:58.626Z,6.16
2022-12-27T16:10:39.329Z,6.16
2022-12-27T16:13:10.493Z,6.17
2022-12-27T16:15:48.626Z,6.17
2022-12-27T16:18:19.375Z,6.18
2022-12-27T16:21:03.701Z,6.19
2022-12-27T16:23:36.228Z,6.18
2022-12-27T16:26:06.292Z,6.18
2022-12-27T16:28:35.642Z,6.18
2022-12-27T16:31:07.802Z,6.19
2022-12-27T16:33:37.847Z,6.18
2022-12-27T16:36:11.665Z,6.19
2022-12-27T16:38:45.333Z,6.17
2022-12-27T16:41:11.876Z,6.17
2022-12-27T16:43:54.649Z,6.19
2022-12-27T16:46:31.421Z,6.19
2022-12-27T16:49:29.907Z,6.18
2022-12-27T16:52:20.553Z,6.19
2022-12-27T16:55:22.108Z,6.20
2022-12-27T16:57:49.964Z,6.20
2022-12-27T17:00:24.310Z,6.21
2022-12-27T17:02:50.999Z,6.22
2022-12-27T17:05:17.468Z,6.22
2022-12-27T17:07:48.850Z,6.24
2022-12-27T17:10:27.707Z,6.23
2022-12-27T17:12:59.596Z,6.25
2022-12-27T17:15:27.572Z,6.26
2022-12-27T17:17:58.970Z,6.28
2022-12-27T17:20:26.006Z,6.27
2022-12-27T17:22:57.470Z,6.24
2022-12-27T17:25:38.640Z,6.23
2022-12-27T17:28:15.232Z,6.20
2022-12-27T17:31:00.064Z,6.21
2022-12-27T17:33:44.860Z,6.21
2022-12-27T17:36:26.883Z,6.22
2022-12-27T17:39:12.679Z,6.21
2022-12-27T17:42:17.355Z,6.22
2022-12-27T17:44:51.935Z,6.26
2022-12-27T17:47:49.829Z,6.28
2022-12-27T17:50:24.172Z,6.29
2022-12-27T17:53:35.264Z,6.30
2022-12-27T17:56:31.099Z,6.31
2022-12-27T17:59:13.227Z,6.33
2022-12-27T18:01:46.698Z,6.32
2022-12-27T18:04:19.970Z,6.30
2022-12-27T18:06:46.872Z,6.27
2022-12-27T18:09:37.513Z,6.24
2022-12-27T18:12:12.065Z,6.22
2022-12-27T18:14:38.868Z,6.20
2022-12-27T18:17:06.159Z,6.21
2022-12-27T18:19:33.079Z,6.19
2022-12-27T18:22:02.247Z,6.18
2022-12-27T18:24:32.465Z,6.17
2022-12-27T18:27:02.474Z,6.16
2022-12-27T18:29:29.388Z,6.18
2022-12-27T18:32:00.788Z,6.15
2022-12-27T18:34:42.794Z,6.13
2022-12-27T18:37:13.181Z,6.11
2022-12-27T18:39:47.407Z,6.10
2022-12-27T18:42:25.248Z,6.10
2022-12-27T18:44:58.011Z,6.09
2022-12-27T18:47:28.046Z,6.10
2022-12-27T18:49:58.617Z,6.10
2022-12-27T18:52:32.089Z,6.07
2022-12-27T18:55:15.360Z,6.06
2022-12-27T18:57:42.061Z,6.04
2022-12-27T19:00:25.744Z,6.01
2022-12-27T19:02:54.501Z,5.96
2022-12-27T19:05:22.218Z,5.95
2022-12-27T19:07:53.759Z,5.95
2022-12-27T19:10:23.712Z,5.94
2022-12-27T19:12:52.297Z,5.93
2022-12-27T19:15:24.935Z,5.93
2022-12-27T19:17:56.579Z,5.93
2022-12-27T19:20:27.523Z,5.92
2022-12-27T19:22:57.300Z,5.91
2022-12-27T19:25:28.487Z,5.89
2022-12-27T19:27:58.521Z,5.85
2022-12-27T19:30:31.967Z,5.82
2022-12-27T19:32:59.829Z,5.81
2022-12-27T19:35:26.612Z,5.81
2022-12-27T19:37:53.290Z,5.82
2022-12-27T19:40:20.023Z,5.79
2022-12-27T19:42:46.637Z,5.78
2022-12-27T19:45:15.524Z,5.79
2022-12-27T19:47:42.201Z,5.80
2022-12-27T19:50:10.083Z,5.81
2022-12-27T19:52:38.853Z,5.79
2022-12-27T19:55:09.012Z,5.82
2022-12-27T19:57:35.624Z,5.81
2022-12-27T20:00:08.481Z,5.83
2022-12-27T20:02:39.709Z,5.81
2022-12-27T20:05:07.066Z,5.83
2022-12-27T20:07:33.774Z,5.82
2022-12-27T20:10:00.418Z,5.83
2022-12-27T20:12:27.078Z,5.85
2022-12-27T20:14:53.793Z,5.84
2022-12-27T20:17:20.583Z,5.84
2022-12-27T20:19:47.317Z,5.82
2022-12-27T20:22:15.123Z,5.84
2022-12-27T20:24:41.730Z,5.85
2022-12-27T20:27:08.313Z,5.86
2022-12-27T20:29:35.011Z,5.88
2022-12-27T20:32:01.696Z,5.88
2022-12-27T20:34:28.437Z,5.86
2022-12-27T20:36:55.471Z,5.84
2022-12-27T20:39:22.260Z,5.87
2022-12-27T20:41:48.863Z,5.86
2022-12-27T20:44:15.674Z,5.84
2022-12-27T20:46:42.386Z,5.84
2022-12-27T20:49:09.053Z,5.86
2022-12-27T20:51:35.789Z,5.86
2022-12-27T20:54:03.094Z,5.86
2022-12-27T20:56:30.337Z,5.87
2022-12-27T20:58:57.467Z,5.88
2022-12-27T21:01:25.745Z,5.90
2022-12-27T21:03:56.290Z,5.90
2022-12-27T21:06:26.751Z,5.93
2022-12-27T21:08:57.306Z,5.94
2022-12-27T21:11:27.915Z,5.94
2022-12-27T21:13:55.369Z,5.93
2022-12-27T21:16:25.573Z,5.93
2022-12-27T21:18:53.202Z,5.94
2022-12-27T21:21:26.880Z,5.94
2022-12-27T21:23:55.107Z,5.92
2022-12-27T21:26:25.274Z,5.94
2022-12-27T21:28:52.844Z,5.96
2022-12-27T21:31:19.886Z,5.96
2022-12-27T21:33:47.294Z,5.97
2022-12-27T21:36:16.574Z,5.97
2022-12-27T21:38:43.244Z,5.98
2022-12-27T21:41:12.678Z,5.97
2022-12-27T21:43:40.697Z,5.96
2022-12-27T21:46:11.543Z,5.97
2022-12-27T21:48:38.252Z,5.97
2022-12-27T21:51:11.179Z,5.96
2022-12-27T21:53:38.323Z,5.97
2022-12-27T21:56:05.499Z,5.98
2022-12-27T21:58:33.447Z,5.98
2022-12-27T22:01:08.632Z,5.98
2022-12-27T22:03:37.348Z,5.98
2022-12-27T22:06:13.982Z,5.98
2022-12-27T22:08:42.300Z,5.99
2022-12-27T22:11:09.454Z,6.00
2022-12-27T22:13:37.324Z,5.97
2022-12-27T22:16:06.635Z,5.98
2022-12-27T22:18:36.345Z,6.00
2022-12-27T22:21:05.582Z,5.99
2022-12-27T22:23:35.113Z,5.99
2022-12-27T22:26:01.701Z,6.01
2022-12-27T22:28:29.551Z,6.01
2022-12-27T22:30:57.412Z,6.00
2022-12-27T22:33:24.232Z,5.98
2022-12-27T22:35:51.309Z,5.96
2022-12-27T22:38:17.795Z,5.96
2022-12-27T22:40:46.753Z,5.94
2022-12-27T22:43:14.222Z,5.92
2022-12-27T22:45:42.469Z,5.91
2022-12-27T22:48:09.082Z,5.90
2022-12-27T22:50:38.029Z,5.88
2022-12-27T22:53:04.831Z,5.87
2022-12-27T22:55:31.434Z,5.86
2022-12-27T22:57:58.162Z,5.86
2022-12-27T23:00:24.796Z,5.86
2022-12-27T23:02:51.417Z,5.83
2022-12-27T23:05:18.193Z,5.85
2022-12-27T23:08:06.237Z,5.84
2022-12-27T23:10:31.459Z,5.81
2022-12-27T23:12:58.047Z,5.80
2022-12-27T23:15:24.644Z,5.79
2022-12-27T23:17:52.225Z,5.78
2022-12-27T23:20:19.063Z,5.79
2022-12-27T23:22:45.635Z,5.80
2022-12-27T23:25:12.317Z,5.79
2022-12-27T23:27:38.971Z,5.77
2022-12-27T23:30:06.021Z,5.78
2022-12-27T23:32:32.613Z,5.79
2022-12-27T23:34:59.128Z,5.79
2022-12-27T23:37:25.706Z,5.81
2022-12-27T23:39:52.199Z,5.81
2022-12-27T23:42:18.818Z,5.80
2022-12-27T23:44:45.439Z,5.80
2022-12-27T23:47:11.953Z,5.80
2022-12-27T23:49:38.518Z,5.80
2022-12-27T23:52:05.216Z,5.81
2022-12-27T23:54:31.795Z,5.82
2022-12-27T23:56:58.360Z,5.81
2022-12-27T23:59:44.905Z,5.80
